Time;durP1;ratioP1;P1;durP2;ratioP2;P2;SDS_P1;SDS_P2;PMS_P1;PMS_P2;Temp;Humidity;BMP_temperature;BMP_pressure;BME280_temperature;BME280_humidity;BME280_pressure;Samples;Min_cycle;Max_cycle;Signal;HPM_P1;HPM_P2
2021/12/17 00:04:50;;;;;;;5.80;3.55;;;10.50;52.40;;;;;;5055645;28;20169;-49
2021/12/17 00:07:19;;;;;;;4.60;3.55;;;10.50;52.50;;;;;;5070790;28;20165;-49
2021/12/17 00:09:48;;;;;;;5.13;3.22;;;10.50;52.20;;;;;;5053736;28;20650;-49
2021/12/17 00:12:18;;;;;;;7.47;3.88;;;10.50;52.20;;;;;;5054375;28;20165;-49
2021/12/17 00:14:48;;;;;;;7.38;3.13;;;10.50;52.30;;;;;;5055388;28;20279;-49
2021/12/17 00:17:22;;;;;;;3.22;2.47;;;10.50;52.10;;;;;;5055265;28;20173;-49
2021/12/17 00:20:34;;;;;;;6.68;4.00;;;10.40;52.30;;;;;;5038042;28;20220;-49
2021/12/17 00:40:22;;;;;;;5.50;2.90;;;10.40;52.30;;;;;;5055141;28;20230;-49
2021/12/17 00:53:18;;;;;;;4.15;2.35;;;10.30;52.30;;;;;;5055117;28;20231;-49
2021/12/17 00:55:46;;;;;;;3.22;2.05;;;10.30;53.00;;;;;;5054559;28;20235;-49
2021/12/17 00:58:14;;;;;;;6.60;2.92;;;10.30;52.40;;;;;;5054625;28;20230;-49
2021/12/17 01:00:41;;;;;;;3.35;2.13;;;10.40;52.40;;;;;;5053697;28;20174;-49
2021/12/17 01:03:09;;;;;;;3.78;2.40;;;10.40;52.30;;;;;;5054154;28;20171;-49
2021/12/17 01:05:37;;;;;;;5.00;3.05;;;10.40;52.30;;;;;;5037602;28;20204;-49
2021/12/17 01:08:06;;;;;;;10.90;4.18;;;10.40;52.10;;;;;;5053592;28;20660;-49
2021/12/17 01:10:39;;;;;;;7.63;3.55;;;10.40;52.20;;;;;;5054431;28;20193;-49
2021/12/17 01:13:08;;;;;;;6.53;3.58;;;10.30;52.40;;;;;;5054596;28;20190;-49
2021/12/17 01:15:37;;;;;;;6.00;3.33;;;10.30;52.60;;;;;;5054385;28;20658;-49
2021/12/17 01:18:11;;;;;;;3.97;2.38;;;10.30;52.80;;;;;;5053463;28;20202;-49
2021/12/17 01:36:52;;;;;;;8.10;3.30;;;10.50;52.30;;;;;;5057553;28;20185;-49
2021/12/17 01:42:06;;;;;;;5.82;2.10;;;10.60;52.40;;;;;;5058109;28;20199;-49
2021/12/17 01:44:37;;;;;;;4.60;2.95;;;10.60;52.50;;;;;;5057219;28;20169;-49
2021/12/17 01:47:06;;;;;;;2.75;1.85;;;10.70;52.40;;;;;;5040995;28;20296;-49
2021/12/17 02:00:27;;;;;;;3.80;2.92;;;10.70;52.40;;;;;;5056771;28;20146;-49
2021/12/17 02:02:58;;;;;;;5.93;2.88;;;10.70;52.40;;;;;;5057700;28;20165;-49
2021/12/17 02:05:26;;;;;;;4.20;3.30;;;10.70;52.40;;;;;;5057886;28;20594;-49
2021/12/17 02:07:56;;;;;;;7.68;3.25;;;10.70;52.20;;;;;;5057636;28;20178;-49
2021/12/17 02:11:16;;;;;;;6.75;2.88;;;10.60;52.20;;;;;;5056827;28;20165;-49
2021/12/17 02:21:45;;;;;;;5.82;4.47;;;10.60;52.40;;;;;;5056971;28;20183;-49
2021/12/17 02:32:18;;;;;;;2.95;2.65;;;10.40;52.50;;;;;;5055674;28;20226;-49
2021/12/17 02:37:17;;;;;;;5.82;3.88;;;10.40;52.50;;;;;;5056247;28;20610;-49
2021/12/17 02:42:37;;;;;;;8.45;4.00;;;10.50;52.30;;;;;;5056809;28;20676;-49
2021/12/17 02:48:08;;;;;;;5.85;4.07;;;10.50;52.20;;;;;;5056297;28;20172;-49
2021/12/17 02:50:38;;;;;;;8.60;4.15;;;10.60;52.10;;;;;;5056179;28;20166;-49
2021/12/17 02:53:10;;;;;;;5.82;3.33;;;10.60;52.10;;;;;;5055698;28;20172;-49
2021/12/17 02:55:40;;;;;;;11.40;6.10;;;10.60;51.90;;;;;;5055780;28;20165;-49
2021/12/17 02:58:09;;;;;;;4.28;3.65;;;10.60;52.00;;;;;;5055749;28;20292;-49
2021/12/17 03:00:39;;;;;;;7.55;3.85;;;10.60;51.80;;;;;;5055640;28;20168;-49
2021/12/17 03:03:09;;;;;;;9.40;4.10;;;10.60;51.80;;;;;;5055548;28;20184;-49
2021/12/17 03:05:39;;;;;;;7.22;4.22;;;10.60;51.50;;;;;;5039244;28;20185;-49
2021/12/17 03:08:11;;;;;;;7.18;4.85;;;10.60;51.30;;;;;;5056626;28;20161;-49
2021/12/17 03:10:39;;;;;;;7.35;4.82;;;10.60;51.70;;;;;;5055623;28;20495;-49
2021/12/17 03:13:07;;;;;;;10.00;5.20;;;10.60;51.60;;;;;;5039010;28;20180;-49
2021/12/17 03:15:58;;;;;;;7.45;2.88;;;10.60;51.60;;;;;;5055233;28;20180;-49
2021/12/17 03:23:43;;;;;;;7.70;5.78;;;10.60;51.70;;;;;;5056559;28;20188;-49
2021/12/17 03:26:23;;;;;;;5.85;3.72;;;10.50;51.60;;;;;;5055442;28;20244;-49
2021/12/17 03:28:55;;;;;;;5.82;4.05;;;10.50;51.50;;;;;;5056005;28;20512;-49
2021/12/17 03:31:24;;;;;;;3.13;2.50;;;10.50;51.50;;;;;;5055115;28;20158;-49
2021/12/17 03:33:56;;;;;;;5.38;3.40;;;10.50;51.70;;;;;;5039169;28;20197;-49
2021/12/17 03:36:26;;;;;;;6.18;4.00;;;10.50;51.70;;;;;;5056007;28;20176;-49
2021/12/17 03:38:54;;;;;;;8.10;4.93;;;10.40;51.70;;;;;;5038629;28;20641;-49
2021/12/17 03:41:34;;;;;;;9.63;5.03;;;10.40;51.50;;;;;;5054962;28;20165;-49
2021/12/17 03:44:01;;;;;;;7.47;3.55;;;10.40;51.70;;;;;;5054820;28;20609;-49
2021/12/17 03:46:29;;;;;;;6.30;3.70;;;10.30;51.80;;;;;;5054521;28;20213;-49
2021/12/17 03:48:56;;;;;;;8.63;4.45;;;10.40;51.80;;;;;;5054900;28;20197;-49
2021/12/17 03:51:24;;;;;;;4.38;3.97;;;10.40;51.80;;;;;;5055512;28;20165;-49
2021/12/17 03:53:55;;;;;;;5.03;2.90;;;10.40;51.70;;;;;;5054713;28;20203;-49
2021/12/17 03:56:24;;;;;;;8.48;3.55;;;10.30;51.60;;;;;;5054659;28;20537;-49
2021/12/17 03:58:54;;;;;;;9.68;5.55;;;10.30;51.70;;;;;;5055333;28;20189;-49
2021/12/17 04:01:21;;;;;;;6.72;4.93;;;10.40;51.60;;;;;;5055462;28;20173;-49
2021/12/17 04:03:49;;;;;;;8.48;3.90;;;10.30;51.60;;;;;;5055353;28;20213;-49
2021/12/17 04:06:17;;;;;;;12.40;4.68;;;10.30;51.60;;;;;;5055298;28;20172;-49
2021/12/17 04:08:44;;;;;;;5.38;3.83;;;10.20;51.70;;;;;;5055519;28;20180;-49
2021/12/17 04:11:18;;;;;;;6.28;3.92;;;10.20;51.70;;;;;;5055439;28;20189;-49
2021/12/17 04:13:53;;;;;;;10.65;4.60;;;10.20;51.70;;;;;;5054449;28;20204;-49
2021/12/17 04:16:25;;;;;;;12.40;5.85;;;10.30;51.60;;;;;;5038785;28;20172;-50
2021/12/17 04:18:54;;;;;;;7.57;5.53;;;10.30;51.50;;;;;;5054812;28;20200;-50
2021/12/17 04:21:22;;;;;;;5.78;3.40;;;10.20;51.50;;;;;;5055291;28;20161;-49
2021/12/17 04:23:53;;;;;;;4.78;3.00;;;10.30;51.70;;;;;;5054217;28;20161;-49
2021/12/17 04:26:23;;;;;;;9.35;4.78;;;10.30;51.50;;;;;;5054928;28;20250;-49
2021/12/17 04:28:52;;;;;;;8.50;5.43;;;10.20;51.30;;;;;;5054052;28;20165;-50
2021/12/17 04:31:24;;;;;;;4.13;3.05;;;10.20;51.30;;;;;;5054818;28;20184;-49
2021/12/17 04:33:52;;;;;;;9.15;6.25;;;10.10;51.30;;;;;;5054103;28;20173;-50
2021/12/17 04:36:26;;;;;;;2.92;2.30;;;10.10;51.40;;;;;;5055621;28;20176;-49
2021/12/17 04:38:54;;;;;;;4.13;2.65;;;10.00;51.70;;;;;;5054656;28;20201;-49
2021/12/17 04:41:41;;;;;;;7.93;3.90;;;10.00;51.70;;;;;;5054021;28;20165;-49
2021/12/17 04:44:23;;;;;;;5.15;3.58;;;10.00;51.70;;;;;;5053854;28;20181;-50
2021/12/17 04:47:03;;;;;;;4.03;3.58;;;10.00;51.50;;;;;;5038890;28;20654;-49
2021/12/17 04:57:51;;;;;;;3.75;2.58;;;9.90;51.70;;;;;;5059077;28;20498;-49
2021/12/17 05:00:23;;;;;;;4.93;2.72;;;9.80;52.50;;;;;;5042154;28;20181;-49
2021/12/17 05:02:54;;;;;;;5.65;3.03;;;9.70;52.00;;;;;;5058848;28;20165;-49
2021/12/17 05:05:27;;;;;;;3.90;3.50;;;9.80;52.00;;;;;;5058937;28;20162;-49
2021/12/17 05:08:06;;;;;;;12.75;4.38;;;9.80;52.00;;;;;;5042007;28;20169;-49
2021/12/17 05:19:04;;;;;;;8.43;4.63;;;9.70;52.30;;;;;;5058515;28;20192;-49
2021/12/17 05:21:30;;;;;;;8.82;4.97;;;9.80;52.00;;;;;;5058222;28;20177;-49
2021/12/17 05:23:57;;;;;;;5.93;3.22;;;9.80;52.00;;;;;;5057643;28;20570;-49
2021/12/17 05:26:25;;;;;;;6.45;3.58;;;9.90;52.00;;;;;;5058548;28;20175;-49
2021/12/17 05:28:54;;;;;;;10.10;3.20;;;9.90;51.80;;;;;;5058230;28;20259;-49
2021/12/17 05:31:22;;;;;;;6.28;3.85;;;9.90;51.70;;;;;;5058304;28;20241;-49
2021/12/17 05:33:51;;;;;;;7.50;4.47;;;9.80;51.70;;;;;;5058120;28;20671;-49
2021/12/17 05:36:20;;;;;;;7.40;4.15;;;9.90;51.90;;;;;;5057272;28;20228;-49
2021/12/17 05:38:48;;;;;;;8.27;5.70;;;9.90;51.80;;;;;;5057881;28;20193;-49
2021/12/17 05:41:16;;;;;;;5.95;3.70;;;9.80;51.70;;;;;;5040930;28;20162;-49
2021/12/17 05:43:43;;;;;;;11.10;4.40;;;9.70;52.00;;;;;;5057870;28;20165;-49
2021/12/17 05:46:12;;;;;;;14.18;4.45;;;9.60;52.10;;;;;;5056912;28;20407;-49
2021/12/17 05:48:41;;;;;;;8.48;3.40;;;9.70;52.20;;;;;;5057809;28;20169;-49
2021/12/17 05:51:10;;;;;;;5.82;3.15;;;9.70;51.70;;;;;;5040496;28;20176;-49
2021/12/17 05:53:38;;;;;;;6.22;4.40;;;9.60;51.90;;;;;;5057013;28;20169;-49
2021/12/17 05:56:06;;;;;;;5.07;3.38;;;9.70;51.70;;;;;;5057720;28;20467;-49
2021/12/17 05:58:33;;;;;;;12.00;3.58;;;9.70;51.70;;;;;;5057419;28;20213;-49
2021/12/17 06:01:01;;;;;;;3.13;1.65;;;9.70;51.70;;;;;;5057538;28;20171;-49
2021/12/17 06:03:29;;;;;;;8.88;4.40;;;9.60;51.60;;;;;;5056873;28;20541;-49
2021/12/17 06:05:57;;;;;;;4.35;3.08;;;9.60;51.60;;;;;;5058123;28;20169;-50
2021/12/17 06:08:25;;;;;;;7.95;5.45;;;9.60;51.70;;;;;;5055580;28;20166;-49
2021/12/17 06:10:52;;;;;;;6.50;4.43;;;9.60;51.80;;;;;;5057298;28;20173;-49
2021/12/17 06:13:20;;;;;;;6.55;4.05;;;9.60;51.70;;;;;;5057375;28;20167;-49
2021/12/17 06:15:48;;;;;;;6.20;4.68;;;9.60;51.80;;;;;;5056536;28;20173;-49
2021/12/17 06:18:16;;;;;;;10.80;5.63;;;9.70;51.90;;;;;;5057246;28;20736;-50
2021/12/17 06:20:43;;;;;;;6.43;3.25;;;9.60;51.90;;;;;;5057082;28;20174;-50
2021/12/17 06:23:11;;;;;;;12.30;4.93;;;9.60;51.90;;;;;;5056100;28;20248;-49
2021/12/17 06:25:38;;;;;;;10.05;7.00;;;9.60;51.90;;;;;;5056915;28;20176;-49
2021/12/17 06:28:05;;;;;;;8.10;4.20;;;9.60;52.10;;;;;;5039616;28;20169;-49
2021/12/17 06:30:34;;;;;;;10.20;5.20;;;9.60;52.20;;;;;;5056957;28;20177;-49
2021/12/17 06:33:01;;;;;;;5.80;2.78;;;9.50;52.30;;;;;;5056179;28;20165;-49
2021/12/17 06:35:29;;;;;;;7.10;4.07;;;9.40;52.60;;;;;;5056937;28;20326;-49
2021/12/17 06:37:56;;;;;;;10.30;5.25;;;9.40;52.50;;;;;;5039550;28;20176;-49
2021/12/17 06:40:24;;;;;;;12.63;4.97;;;9.40;52.50;;;;;;5056721;28;20234;-49
2021/12/17 06:42:52;;;;;;;7.13;4.00;;;9.40;52.60;;;;;;5056784;28;20191;-49
2021/12/17 06:45:34;;;;;;;13.80;3.58;;;9.40;52.40;;;;;;5055342;28;20168;-50
2021/12/17 06:48:03;;;;;;;8.65;2.70;;;9.40;52.40;;;;;;5019294;28;20197;-49
2021/12/17 06:59:00;;;;;;;9.27;4.20;;;9.40;52.20;;;;;;5036596;28;20208;-49
2021/12/17 07:10:04;;;;;;;9.40;3.58;;;9.30;52.70;;;;;;5020018;28;20161;-49
2021/12/17 07:18:22;;;;;;;7.38;3.97;;;9.40;52.80;;;;;;5021602;28;20617;-49
2021/12/17 07:21:22;;;;;;;11.15;3.15;;;9.30;52.70;;;;;;5035855;28;20252;-49
2021/12/17 07:34:16;;;;;;;10.25;4.55;;;9.30;52.80;;;;;;5036469;28;20184;-49
2021/12/17 07:38:35;;;;;;;11.93;5.97;;;9.20;52.80;;;;;;5036047;28;20177;-49
2021/12/17 07:39:32;;;;;;;6.78;4.38;;;9.20;52.80;;;;;;5021466;28;20276;-49
2021/12/17 07:41:59;;;;;;;9.45;3.90;;;9.20;53.00;;;;;;5018744;28;20239;-49
2021/12/17 07:44:27;;;;;;;8.15;5.50;;;9.20;53.10;;;;;;5035861;28;20195;-49
2021/12/17 07:46:55;;;;;;;8.10;4.55;;;9.20;53.60;;;;;;5043056;28;20231;-49
2021/12/17 07:49:22;;;;;;;7.05;3.92;;;9.30;52.90;;;;;;5055437;28;20168;-49
2021/12/17 07:51:50;;;;;;;10.90;5.05;;;9.30;52.70;;;;;;5055382;28;20196;-49
2021/12/17 07:54:17;;;;;;;7.20;3.72;;;9.40;52.60;;;;;;5054615;28;20177;-49
2021/12/17 07:56:45;;;;;;;16.10;4.38;;;9.40;52.50;;;;;;5054456;28;20172;-49
2021/12/17 07:59:14;;;;;;;6.18;3.42;;;9.40;52.40;;;;;;5038185;28;20196;-49
2021/12/17 08:01:41;;;;;;;7.35;4.50;;;9.40;52.30;;;;;;5054696;28;20191;-49
2021/12/17 08:04:10;;;;;;;6.68;3.60;;;9.40;52.20;;;;;;5054838;28;20215;-49
2021/12/17 08:06:38;;;;;;;6.80;4.20;;;9.50;52.40;;;;;;5055276;28;20172;-49
2021/12/17 08:09:06;;;;;;;13.57;3.80;;;9.40;52.10;;;;;;5054571;28;20671;-49
2021/12/17 08:11:38;;;;;;;8.30;4.95;;;9.50;52.20;;;;;;5038059;28;20199;-49
2021/12/17 08:14:11;;;;;;;6.53;2.45;;;9.50;52.30;;;;;;5055325;28;20164;-49
2021/12/17 08:16:54;;;;;;;14.35;5.35;;;9.50;52.80;;;;;;5054304;28;20172;-49
2021/12/17 08:27:33;;;;;;;5.65;3.95;;;9.40;52.00;;;;;;5054098;28;20235;-49
2021/12/17 08:32:43;;;;;;;9.88;3.88;;;9.40;52.00;;;;;;5054946;28;20181;-50
2021/12/17 08:35:11;;;;;;;5.47;4.10;;;9.20;51.90;;;;;;5055305;28;20179;-50
2021/12/17 08:37:39;;;;;;;8.13;3.28;;;9.20;52.10;;;;;;5054090;28;20171;-49
2021/12/17 08:40:07;;;;;;;6.03;3.90;;;9.20;52.30;;;;;;5054851;28;20188;-49
2021/12/17 08:42:35;;;;;;;10.15;3.22;;;9.10;52.50;;;;;;5054673;28;20601;-49
2021/12/17 08:45:07;;;;;;;11.18;8.00;;;9.10;52.80;;;;;;5053888;28;20190;-49
2021/12/17 08:47:36;;;;;;;11.95;4.63;;;9.10;52.70;;;;;;5035122;28;20220;-50
2021/12/17 08:50:07;;;;;;;3.25;2.05;;;9.00;52.70;;;;;;5017653;28;20569;-50
2021/12/17 08:52:34;;;;;;;10.70;3.80;;;9.00;52.90;;;;;;5017895;28;20168;-49
2021/12/17 08:55:03;;;;;;;10.60;5.03;;;9.10;52.80;;;;;;5034746;28;20181;-49
2021/12/17 08:57:31;;;;;;;5.18;3.20;;;9.10;52.80;;;;;;5017544;28;20627;-49
2021/12/17 09:00:04;;;;;;;5.13;3.50;;;9.20;53.30;;;;;;5017323;28;20278;-49
2021/12/17 09:02:35;;;;;;;4.72;2.53;;;9.20;52.40;;;;;;5016907;28;20170;-49
2021/12/17 09:05:05;;;;;;;7.75;3.45;;;9.30;52.40;;;;;;5017455;28;20183;-49
2021/12/17 09:07:33;;;;;;;9.20;5.15;;;9.30;52.30;;;;;;5034601;28;20162;-49
2021/12/17 09:10:05;;;;;;;6.43;3.40;;;9.30;52.30;;;;;;5034932;28;20254;-50
2021/12/17 09:12:33;;;;;;;6.55;5.10;;;9.40;52.30;;;;;;5001424;28;20197;-50
2021/12/17 09:15:01;;;;;;;3.38;2.13;;;9.40;52.20;;;;;;5034971;28;20173;-49
2021/12/17 09:17:28;;;;;;;5.80;2.90;;;9.30;52.10;;;;;;5034485;28;20173;-49
2021/12/17 09:19:56;;;;;;;3.40;2.17;;;9.30;53.00;;;;;;5034295;28;20211;-49
2021/12/17 09:22:23;;;;;;;8.95;4.10;;;9.30;52.40;;;;;;5034391;28;20169;-49
2021/12/17 09:24:51;;;;;;;6.03;3.50;;;9.30;52.40;;;;;;5017125;28;20201;-49
2021/12/17 09:27:19;;;;;;;25.60;4.93;;;9.20;52.20;;;;;;5017146;28;20196;-49
2021/12/17 09:29:47;;;;;;;6.97;2.97;;;9.20;52.10;;;;;;5017098;28;20198;-49
2021/12/17 09:32:14;;;;;;;8.68;4.60;;;9.20;52.50;;;;;;5017352;28;20173;-49
2021/12/17 09:34:42;;;;;;;6.25;2.67;;;9.20;52.60;;;;;;5034289;28;20678;-49
2021/12/17 09:37:10;;;;;;;7.85;3.70;;;9.20;52.70;;;;;;5017169;28;20180;-49
2021/12/17 09:39:37;;;;;;;6.22;3.28;;;9.30;52.60;;;;;;5034299;28;20665;-50
2021/12/17 09:42:05;;;;;;;5.50;3.08;;;9.30;52.30;;;;;;5036358;28;20180;-51
2021/12/17 09:44:32;;;;;;;8.90;3.10;;;9.30;52.20;;;;;;5021129;28;20173;-49
2021/12/17 09:47:00;;;;;;;7.57;4.82;;;9.40;52.30;;;;;;5037860;28;20209;-50
2021/12/17 09:49:28;;;;;;;6.60;3.55;;;9.50;52.30;;;;;;5020595;28;20230;-49
2021/12/17 09:51:57;;;;;;;9.40;3.72;;;9.50;52.00;;;;;;5037964;28;20168;-49
2021/12/17 09:54:26;;;;;;;5.90;4.25;;;9.60;52.00;;;;;;5020737;28;20511;-49
2021/12/17 09:56:54;;;;;;;5.38;2.97;;;9.60;51.70;;;;;;5020716;28;20239;-49
2021/12/17 09:59:22;;;;;;;6.30;4.00;;;9.60;51.60;;;;;;5020351;28;20269;-49
2021/12/17 10:01:50;;;;;;;6.03;2.63;;;9.60;51.50;;;;;;5037585;28;20166;-49
2021/12/17 10:04:25;;;;;;;5.78;3.38;;;9.60;51.60;;;;;;5037665;28;20197;-49
2021/12/17 10:07:03;;;;;;;6.65;3.88;;;9.60;51.60;;;;;;5020620;28;20215;-50
2021/12/17 10:09:34;;;;;;;7.35;4.00;;;9.70;51.70;;;;;;5020809;28;20181;-49
2021/12/17 10:12:03;;;;;;;4.35;3.38;;;9.70;51.70;;;;;;5020089;28;20200;-49
2021/12/17 10:14:30;;;;;;;5.90;3.03;;;9.70;51.70;;;;;;5003760;28;20239;-49
2021/12/17 10:17:14;;;;;;;5.22;3.22;;;9.70;51.70;;;;;;5037313;28;20193;-49
2021/12/17 10:19:46;;;;;;;6.28;4.35;;;9.70;51.60;;;;;;5003957;28;20238;-49
2021/12/17 10:22:15;;;;;;;6.05;3.08;;;9.70;51.60;;;;;;5020758;28;20162;-49
2021/12/17 10:25:07;;;;;;;5.57;2.95;;;9.70;51.50;;;;;;5037472;28;20253;-49
2021/12/17 10:27:37;;;;;;;9.63;3.83;;;9.70;51.50;;;;;;5036907;28;20178;-49
2021/12/17 10:30:14;;;;;;;5.35;2.75;;;9.60;51.60;;;;;;5037219;28;20173;-49
2021/12/17 10:32:44;;;;;;;7.82;4.20;;;9.70;51.70;;;;;;5019767;28;20160;-49
2021/12/17 10:35:16;;;;;;;9.23;3.30;;;9.60;51.50;;;;;;5019814;28;20169;-49
2021/12/17 10:37:52;;;;;;;7.97;4.00;;;9.60;51.50;;;;;;5019981;28;20177;-49
2021/12/17 10:40:30;;;;;;;6.05;2.92;;;9.60;51.50;;;;;;5003715;28;20197;-49
2021/12/17 10:45:32;;;;;;;10.82;3.50;;;9.70;51.70;;;;;;5019532;28;20177;-49
2021/12/17 10:48:29;;;;;;;10.27;3.75;;;9.60;51.50;;;;;;5036975;28;20207;-49
2021/12/17 10:51:28;;;;;;;6.53;2.22;;;9.60;51.60;;;;;;5019482;28;20480;-49
2021/12/17 10:54:03;;;;;;;9.10;3.22;;;9.60;51.60;;;;;;5036373;28;20204;-49
2021/12/17 10:56:41;;;;;;;6.05;4.28;;;9.60;51.60;;;;;;5036508;28;20189;-49
2021/12/17 10:59:19;;;;;;;6.80;3.63;;;9.60;51.60;;;;;;5036664;28;20514;-49
2021/12/17 11:01:48;;;;;;;6.82;4.43;;;9.60;51.60;;;;;;5036740;28;20157;-49
2021/12/17 11:04:31;;;;;;;7.22;3.75;;;9.50;51.50;;;;;;5019010;28;20181;-49
2021/12/17 11:07:16;;;;;;;13.60;4.15;;;9.50;51.90;;;;;;5020525;28;20172;-49
2021/12/17 11:10:02;;;;;;;4.47;2.47;;;9.60;51.80;;;;;;5020115;28;20224;-49
2021/12/17 11:12:30;;;;;;;3.47;1.52;;;9.50;52.00;;;;;;5036298;28;20178;-49
2021/12/17 11:15:19;;;;;;;8.52;2.85;;;9.50;51.90;;;;;;5036392;28;20260;-49
2021/12/17 11:17:51;;;;;;;10.57;3.83;;;9.60;51.80;;;;;;5019024;28;20160;-49
2021/12/17 11:20:34;;;;;;;5.55;3.70;;;9.60;51.90;;;;;;5019287;28;20619;-49
2021/12/17 11:23:07;;;;;;;6.43;4.57;;;9.50;51.60;;;;;;5019189;28;20179;-49
2021/12/17 11:25:37;;;;;;;10.32;4.38;;;9.40;51.80;;;;;;5019148;28;20247;-50
2021/12/17 11:28:07;;;;;;;8.50;4.00;;;9.40;52.00;;;;;;5019243;28;20232;-50
2021/12/17 11:30:38;;;;;;;4.10;3.08;;;9.50;51.90;;;;;;5035928;28;20181;-49
2021/12/17 11:33:05;;;;;;;10.85;5.57;;;9.50;51.90;;;;;;5018912;28;20484;-49
2021/12/17 11:35:35;;;;;;;4.75;3.30;;;9.50;51.80;;;;;;5018807;28;20189;-49
2021/12/17 11:38:32;;;;;;;5.47;2.92;;;9.50;51.90;;;;;;5035879;28;20544;-49
2021/12/17 11:41:16;;;;;;;9.57;4.40;;;9.50;51.80;;;;;;5005649;28;20205;-49
2021/12/17 11:43:59;;;;;;;5.90;3.72;;;9.50;51.80;;;;;;5018742;28;20192;-49
2021/12/17 11:46:32;;;;;;;11.80;6.28;;;9.50;52.00;;;;;;5035332;28;20213;-49
2021/12/17 11:49:07;;;;;;;6.10;3.50;;;9.50;52.00;;;;;;5055701;28;20595;-49
2021/12/17 11:51:36;;;;;;;14.43;5.68;;;9.50;52.00;;;;;;5055416;28;20175;-49
2021/12/17 11:54:15;;;;;;;4.93;2.75;;;9.60;51.50;;;;;;5055481;28;20268;-49
2021/12/17 11:56:54;;;;;;;13.23;4.88;;;9.60;51.90;;;;;;5054655;28;20152;-49
2021/12/17 11:59:28;;;;;;;9.55;5.68;;;9.70;51.70;;;;;;5054568;28;20200;-49
2021/12/17 12:02:19;;;;;;;6.53;3.42;;;9.80;51.60;;;;;;5054380;28;20252;-49
2021/12/17 12:04:53;;;;;;;7.95;4.72;;;9.80;51.40;;;;;;5053527;28;20173;-49
2021/12/17 12:07:34;;;;;;;6.80;3.72;;;9.80;51.30;;;;;;5055376;28;20158;-49
2021/12/17 12:10:21;;;;;;;3.60;2.13;;;9.70;51.60;;;;;;5038371;28;20161;-49
2021/12/17 12:12:50;;;;;;;5.15;2.65;;;9.70;51.70;;;;;;5040484;28;20177;-50
2021/12/17 12:15:24;;;;;;;7.50;3.60;;;9.80;51.40;;;;;;5054165;28;20177;-49
2021/12/17 12:18:08;;;;;;;9.98;2.80;;;9.70;51.40;;;;;;5055470;28;20577;-49
2021/12/17 12:20:47;;;;;;;11.70;3.10;;;9.80;51.50;;;;;;5054970;28;20172;-49
2021/12/17 12:23:33;;;;;;;4.35;3.10;;;9.90;51.50;;;;;;5054826;28;20192;-49
2021/12/17 12:26:11;;;;;;;6.78;3.60;;;9.90;51.40;;;;;;5039365;28;20262;-49
2021/12/17 12:28:47;;;;;;;5.57;3.05;;;9.80;51.40;;;;;;5054026;28;20200;-49
2021/12/17 12:31:14;;;;;;;5.50;3.30;;;9.70;51.60;;;;;;5053976;28;20181;-49
2021/12/17 12:34:05;;;;;;;4.20;3.38;;;9.70;51.50;;;;;;5054764;28;20476;-50
2021/12/17 12:37:03;;;;;;;9.48;4.22;;;9.70;51.50;;;;;;5053738;28;20267;-49
2021/12/17 12:39:38;;;;;;;11.05;6.32;;;9.70;51.80;;;;;;5054801;28;20200;-49
2021/12/17 12:42:14;;;;;;;6.70;4.07;;;9.80;51.70;;;;;;5054324;28;20211;-49
2021/12/17 12:44:42;;;;;;;6.25;3.47;;;9.80;51.70;;;;;;5037506;28;20261;-49
2021/12/17 12:47:26;;;;;;;30.25;5.07;;;9.90;51.50;;;;;;5053414;28;20235;-50
2021/12/17 12:50:08;;;;;;;4.55;2.90;;;9.90;51.40;;;;;;5053593;28;20177;-49
2021/12/17 12:52:45;;;;;;;6.45;3.72;;;9.90;51.40;;;;;;5053737;28;20164;-50
2021/12/17 12:55:43;;;;;;;12.85;4.38;;;9.80;51.60;;;;;;5054672;28;20169;-50
2021/12/17 12:58:17;;;;;;;5.68;3.33;;;9.80;51.60;;;;;;5054588;28;20162;-50
2021/12/17 13:00:55;;;;;;;8.02;3.97;;;9.80;51.70;;;;;;5054636;28;20585;-49
2021/12/17 13:03:30;;;;;;;5.00;2.95;;;9.80;51.80;;;;;;5053688;28;20180;-50
2021/12/17 13:05:59;;;;;;;9.77;3.63;;;9.80;51.90;;;;;;5037534;28;20159;-50
2021/12/17 13:08:30;;;;;;;3.40;2.90;;;9.80;51.90;;;;;;5054456;28;20161;-50
2021/12/17 13:11:04;;;;;;;4.00;2.83;;;9.70;52.30;;;;;;5053650;28;20623;-49
2021/12/17 13:13:37;;;;;;;6.32;4.55;;;9.70;52.40;;;;;;5054427;28;20149;-49
2021/12/17 13:16:24;;;;;;;7.53;2.72;;;9.60;52.80;;;;;;5038096;28;20191;-50
2021/12/17 13:21:45;;;;;;;4.90;3.00;;;9.80;53.30;;;;;;5058101;28;20203;-50
2021/12/17 13:24:25;;;;;;;5.78;2.75;;;9.80;52.70;;;;;;5057535;28;20230;-50
2021/12/17 13:26:56;;;;;;;15.48;4.03;;;9.80;52.70;;;;;;5058250;28;20172;-50
2021/12/17 13:29:38;;;;;;;4.35;3.70;;;9.70;53.10;;;;;;5057412;28;20179;-50
2021/12/17 13:32:17;;;;;;;7.88;4.60;;;9.60;53.10;;;;;;5058071;28;20546;-49
2021/12/17 13:34:51;;;;;;;7.13;3.47;;;9.60;53.20;;;;;;5057529;28;20234;-49
2021/12/17 13:37:24;;;;;;;10.05;6.07;;;9.70;53.30;;;;;;5057144;28;20164;-49
2021/12/17 13:39:56;;;;;;;4.18;2.63;;;9.70;53.40;;;;;;5058149;28;20533;-49
2021/12/17 13:42:30;;;;;;;6.15;2.25;;;9.70;53.30;;;;;;5057966;28;20169;-49
2021/12/17 13:45:05;;;;;;;5.57;3.70;;;9.80;53.00;;;;;;5057342;28;20165;-49
2021/12/17 13:47:38;;;;;;;7.55;3.40;;;9.80;52.90;;;;;;5038940;28;20213;-49
2021/12/17 13:50:08;;;;;;;10.18;3.00;;;9.90;53.10;;;;;;5020848;28;20169;-49
2021/12/17 13:52:47;;;;;;;7.93;3.50;;;9.80;53.10;;;;;;5037885;28;20183;-50
2021/12/17 13:55:18;;;;;;;3.83;1.88;;;9.80;53.10;;;;;;5021374;28;20273;-50
2021/12/17 13:57:47;;;;;;;5.65;3.92;;;9.80;53.10;;;;;;5020472;28;20178;-50
2021/12/17 14:00:24;;;;;;;8.90;4.18;;;9.80;53.10;;;;;;5020940;28;20194;-50
2021/12/17 14:02:55;;;;;;;4.75;2.65;;;9.90;53.00;;;;;;5037608;28;20538;-50
2021/12/17 14:05:29;;;;;;;4.07;2.33;;;9.90;53.00;;;;;;5004350;28;20166;-49
2021/12/17 14:08:02;;;;;;;5.20;2.75;;;9.90;53.00;;;;;;5037607;28;20233;-49
2021/12/17 14:10:37;;;;;;;22.60;3.90;;;9.90;53.00;;;;;;5020559;28;20194;-49
2021/12/17 14:13:06;;;;;;;5.50;3.25;;;9.90;53.00;;;;;;5020562;28;20173;-49
2021/12/17 14:15:36;;;;;;;3.97;3.22;;;10.00;52.70;;;;;;5020572;28;20166;-49
2021/12/17 14:18:08;;;;;;;3.80;2.88;;;10.00;52.70;;;;;;5020938;28;20177;-49
2021/12/17 14:20:45;;;;;;;9.52;4.65;;;9.90;53.00;;;;;;5004582;28;20497;-49
2021/12/17 14:23:20;;;;;;;7.70;4.40;;;10.00;52.70;;;;;;5004774;28;20154;-49
2021/12/17 14:25:58;;;;;;;7.22;3.25;;;10.00;52.60;;;;;;5037640;28;20169;-49
2021/12/17 14:28:30;;;;;;;5.85;3.97;;;10.00;52.50;;;;;;5036272;28;20181;-49
2021/12/17 14:31:05;;;;;;;8.15;4.85;;;10.10;52.50;;;;;;5020527;28;20166;-50
2021/12/17 14:33:35;;;;;;;5.70;2.92;;;10.10;52.50;;;;;;5021046;28;20173;-49
2021/12/17 14:36:20;;;;;;;4.75;3.45;;;10.10;52.40;;;;;;5004212;28;20162;-49
2021/12/17 14:38:57;;;;;;;4.15;3.22;;;10.10;52.40;;;;;;5019662;28;20189;-50
2021/12/17 14:41:34;;;;;;;4.72;3.80;;;10.10;52.40;;;;;;5004106;28;20256;-49
2021/12/17 14:44:23;;;;;;;8.10;4.20;;;10.10;52.30;;;;;;5036690;28;20157;-50
2021/12/17 14:46:59;;;;;;;7.57;3.35;;;10.00;52.30;;;;;;5041922;28;20224;-50
2021/12/17 14:59:23;;;;;;;7.57;3.85;;;10.00;52.10;;;;;;5056518;28;20219;-49
2021/12/17 15:03:28;;;;;;;8.93;3.00;;;9.90;52.50;;;;;;5055676;28;20156;-49
2021/12/17 15:05:58;;;;;;;5.10;4.60;;;9.90;52.50;;;;;;5055544;28;20169;-50
2021/12/17 15:08:27;;;;;;;9.32;5.00;;;10.00;52.50;;;;;;5055761;28;20244;-49
2021/12/17 15:10:56;;;;;;;5.13;2.75;;;10.00;52.40;;;;;;5056441;28;20260;-49
2021/12/17 15:13:23;;;;;;;5.47;3.85;;;10.00;52.30;;;;;;5055566;28;20166;-49
2021/12/17 15:15:52;;;;;;;5.65;3.53;;;10.00;52.10;;;;;;5039187;28;20180;-49
2021/12/17 15:18:20;;;;;;;3.20;2.78;;;10.00;52.30;;;;;;5056297;28;20165;-50
2021/12/17 15:20:50;;;;;;;3.67;2.80;;;10.00;52.20;;;;;;5055576;28;20181;-49
2021/12/17 15:23:19;;;;;;;4.13;3.80;;;10.00;52.00;;;;;;5055717;28;20165;-50
2021/12/17 15:25:47;;;;;;;6.70;4.85;;;10.00;52.10;;;;;;5055175;28;20576;-50
2021/12/17 15:28:17;;;;;;;5.38;3.25;;;10.00;52.10;;;;;;5055934;28;20260;-50
2021/12/17 15:30:49;;;;;;;6.82;3.72;;;10.00;52.20;;;;;;5055252;28;20257;-49
2021/12/17 15:33:17;;;;;;;5.90;3.75;;;10.00;52.20;;;;;;5055100;28;20240;-50
2021/12/17 15:35:45;;;;;;;7.40;4.13;;;10.00;52.10;;;;;;5055840;28;20491;-49
2021/12/17 15:38:13;;;;;;;9.35;3.58;;;10.00;52.00;;;;;;5054972;28;20165;-49
2021/12/17 15:40:46;;;;;;;11.93;5.38;;;10.00;52.10;;;;;;5055729;28;20484;-49
2021/12/17 15:43:17;;;;;;;9.57;4.85;;;10.10;52.00;;;;;;5054965;28;20598;-50
2021/12/17 15:45:48;;;;;;;7.20;5.18;;;10.00;52.10;;;;;;5051807;28;20603;-50
2021/12/17 15:48:17;;;;;;;5.68;3.90;;;10.10;52.10;;;;;;5035945;28;20172;-50
2021/12/17 15:50:45;;;;;;;8.80;4.60;;;10.10;52.00;;;;;;5002761;28;20237;-49
2021/12/17 15:53:13;;;;;;;12.27;3.67;;;10.10;52.20;;;;;;5018460;28;20586;-50
2021/12/17 15:55:41;;;;;;;11.30;5.03;;;10.20;51.80;;;;;;5035613;28;20494;-49
2021/12/17 15:58:12;;;;;;;9.15;4.13;;;10.10;51.80;;;;;;5018501;28;20595;-49
2021/12/17 16:00:40;;;;;;;6.32;3.92;;;10.20;51.70;;;;;;5018671;28;20249;-49
2021/12/17 16:03:11;;;;;;;7.70;3.97;;;10.10;51.70;;;;;;5002445;28;20257;-49
2021/12/17 16:05:39;;;;;;;5.75;4.18;;;10.10;51.90;;;;;;5035347;28;20280;-50